Time;durP1;ratioP1;P1;durP2;ratioP2;P2;SDS_P1;SDS_P2;PMS_P1;PMS_P2;Temp;Humidity;BMP_temperature;BMP_pressure;BME280_temperature;BME280_humidity;BME280_pressure;Samples;Min_cycle;Max_cycle;Signal;HPM_P1;HPM_P2
2023/09/07 00:00:30;;;;;;;5.38;3.45;;;17.40;99.90;;;;;;5039915;28;20170;-94
2023/09/07 00:02:56;;;;;;;6.15;3.45;;;17.40;99.90;;;;;;5039807;28;20177;-94
2023/09/07 00:05:21;;;;;;;7.93;3.28;;;17.30;99.90;;;;;;5039837;28;20170;-93
2023/09/07 00:07:48;;;;;;;5.72;3.47;;;17.30;99.90;;;;;;5039645;28;20224;-93
2023/09/07 00:10:15;;;;;;;4.13;3.08;;;17.20;99.90;;;;;;5039648;28;20197;-94
2023/09/07 00:12:41;;;;;;;7.93;3.50;;;17.20;99.90;;;;;;5039804;28;20262;-93
2023/09/07 00:15:07;;;;;;;6.22;3.83;;;17.10;99.90;;;;;;5039422;28;20257;-93
2023/09/07 00:17:36;;;;;;;5.45;3.53;;;17.00;99.90;;;;;;5039572;28;20204;-94
2023/09/07 00:20:14;;;;;;;4.28;3.35;;;17.00;99.90;;;;;;5039639;28;20174;-94
2023/09/07 00:22:40;;;;;;;4.20;3.50;;;17.00;99.90;;;;;;5039637;28;20169;-94
2023/09/07 00:25:06;;;;;;;6.07;3.28;;;17.00;99.90;;;;;;5039413;28;20170;-93
2023/09/07 00:27:34;;;;;;;5.38;3.40;;;17.00;99.90;;;;;;5039491;28;20205;-94
2023/09/07 00:30:00;;;;;;;3.88;3.47;;;17.00;99.90;;;;;;5039207;28;20243;-94
2023/09/07 00:32:26;;;;;;;4.13;3.22;;;16.90;99.90;;;;;;5039237;28;20566;-94
2023/09/07 00:34:52;;;;;;;4.47;3.40;;;16.80;99.90;;;;;;5039361;28;20215;-94
2023/09/07 00:37:17;;;;;;;6.00;3.28;;;16.70;99.90;;;;;;5039018;28;20240;-94
2023/09/07 00:39:44;;;;;;;5.68;3.33;;;16.70;99.90;;;;;;5039170;28;20185;-95
2023/09/07 00:42:09;;;;;;;4.45;3.42;;;16.70;99.90;;;;;;5039247;28;20166;-93
2023/09/07 00:44:35;;;;;;;4.65;3.40;;;16.60;99.90;;;;;;5039063;28;20292;-95
2023/09/07 00:47:01;;;;;;;5.40;3.65;;;16.60;99.90;;;;;;5039060;28;20198;-94
2023/09/07 00:49:28;;;;;;;8.90;3.70;;;16.60;99.90;;;;;;5038957;28;20193;-94
2023/09/07 00:51:53;;;;;;;5.07;3.38;;;16.50;99.90;;;;;;5038393;28;20724;-93
2023/09/07 00:54:20;;;;;;;6.60;3.72;;;16.50;99.90;;;;;;5038647;28;20273;-94
2023/09/07 00:56:45;;;;;;;8.15;3.90;;;16.40;99.90;;;;;;5038665;28;20198;-93
2023/09/07 00:59:13;;;;;;;6.35;3.80;;;16.40;99.90;;;;;;5038733;28;20188;-95
2023/09/07 01:01:38;;;;;;;4.30;3.15;;;16.50;99.90;;;;;;5038889;28;20238;-94
2023/09/07 01:04:04;;;;;;;6.15;3.47;;;16.50;99.90;;;;;;5038641;28;20174;-93
2023/09/07 01:06:37;;;;;;;5.28;3.42;;;16.50;99.90;;;;;;5038686;28;20197;-94
2023/09/07 01:09:12;;;;;;;4.95;3.30;;;16.50;99.90;;;;;;5038906;28;20170;-92
2023/09/07 01:11:39;;;;;;;5.13;3.45;;;16.60;99.90;;;;;;5038519;28;20550;-95
2023/09/07 01:14:05;;;;;;;7.43;3.45;;;16.70;99.90;;;;;;5038379;28;20253;-93
2023/09/07 01:16:35;;;;;;;6.43;3.42;;;16.70;99.90;;;;;;5038614;28;20205;-94
2023/09/07 01:19:02;;;;;;;3.65;3.35;;;16.70;99.90;;;;;;5038499;28;20170;-94
2023/09/07 01:21:35;;;;;;;5.38;3.70;;;16.60;99.90;;;;;;5038412;28;20610;-94
2023/09/07 01:24:03;;;;;;;4.82;3.80;;;16.60;99.90;;;;;;5038395;28;20637;-93
2023/09/07 01:26:28;;;;;;;5.85;3.63;;;16.60;99.90;;;;;;5439197;22;20662;-88
2023/09/07 01:28:54;;;;;;;3.95;3.40;;;16.50;99.90;;;;;;5079124;28;20188;-88
2023/09/07 01:31:20;;;;;;;5.18;3.58;;;16.50;99.90;;;;;;5079152;28;20257;-88
2023/09/07 01:33:45;;;;;;;6.35;3.58;;;16.50;99.90;;;;;;5078969;28;20188;-89
2023/09/07 01:36:11;;;;;;;6.85;3.90;;;16.40;99.90;;;;;;5078960;28;20187;-89
2023/09/07 01:38:42;;;;;;;11.32;4.20;;;16.30;99.90;;;;;;5078951;28;20518;-89
2023/09/07 01:41:08;;;;;;;7.28;3.90;;;16.30;99.90;;;;;;5078933;28;20191;-87
2023/09/07 01:43:33;;;;;;;6.53;4.10;;;16.10;99.90;;;;;;5079045;28;20176;-89
2023/09/07 01:45:59;;;;;;;6.28;3.70;;;16.10;99.90;;;;;;5078815;28;20176;-89
2023/09/07 01:48:27;;;;;;;6.28;4.00;;;16.10;99.90;;;;;;5078637;28;20180;-89
2023/09/07 01:50:53;;;;;;;4.97;3.90;;;16.10;99.90;;;;;;5096692;28;20204;-89
2023/09/07 01:53:19;;;;;;;4.78;4.25;;;16.20;99.90;;;;;;5078553;28;20168;-88
2023/09/07 01:55:45;;;;;;;5.47;3.72;;;16.30;99.90;;;;;;5076563;28;20177;-88
2023/09/07 01:58:18;;;;;;;4.85;4.00;;;16.30;99.90;;;;;;5058275;28;20185;-89
2023/09/07 02:00:44;;;;;;;7.03;4.10;;;16.30;99.90;;;;;;5076831;28;20162;-88
2023/09/07 02:03:10;;;;;;;5.93;4.05;;;16.30;99.90;;;;;;5057600;28;20185;-89
2023/09/07 02:05:36;;;;;;;5.05;3.97;;;16.30;99.90;;;;;;5058450;28;20177;-89
2023/09/07 02:08:06;;;;;;;5.32;4.25;;;16.40;99.90;;;;;;5058293;28;20185;-89
2023/09/07 02:10:31;;;;;;;5.80;3.95;;;16.40;99.90;;;;;;5058095;28;20552;-89
2023/09/07 02:12:57;;;;;;;5.78;3.88;;;16.40;99.90;;;;;;5075872;28;20197;-88
2023/09/07 02:15:23;;;;;;;10.63;4.95;;;16.40;99.90;;;;;;5058484;28;20196;-88
2023/09/07 02:17:49;;;;;;;5.53;4.22;;;16.40;99.90;;;;;;5058245;28;20177;-88
2023/09/07 02:20:15;;;;;;;8.38;4.22;;;16.40;99.90;;;;;;5076193;28;20188;-89
2023/09/07 02:22:40;;;;;;;7.85;4.28;;;16.40;99.90;;;;;;5058062;28;20270;-89
2023/09/07 02:25:07;;;;;;;11.45;4.80;;;16.40;99.90;;;;;;5075916;28;20184;-89
2023/09/07 02:27:35;;;;;;;5.80;5.10;;;16.40;99.90;;;;;;5038078;28;20237;-89
2023/09/07 02:30:03;;;;;;;8.30;4.85;;;16.30;99.90;;;;;;5034417;28;20249;-90
2023/09/07 02:32:29;;;;;;;6.55;4.72;;;16.30;99.90;;;;;;5034627;28;20233;-89
2023/09/07 02:34:55;;;;;;;7.15;4.93;;;16.40;99.90;;;;;;5035874;28;20178;-88
2023/09/07 02:37:22;;;;;;;5.30;4.80;;;16.40;99.90;;;;;;5034439;28;20183;-89
2023/09/07 02:39:47;;;;;;;7.18;5.25;;;16.40;99.90;;;;;;5034532;28;20601;-90
2023/09/07 02:42:13;;;;;;;8.63;4.60;;;16.40;99.90;;;;;;5034106;28;20171;-89
2023/09/07 02:44:39;;;;;;;9.57;5.63;;;16.50;99.90;;;;;;5034661;28;20182;-89
2023/09/07 02:47:04;;;;;;;9.35;5.68;;;16.60;99.90;;;;;;5034499;28;20175;-89
2023/09/07 02:49:44;;;;;;;8.57;5.93;;;16.60;99.90;;;;;;5034543;28;20189;-90
2023/09/07 02:52:09;;;;;;;7.88;5.40;;;16.70;99.90;;;;;;5034381;28;20261;-88
2023/09/07 02:54:35;;;;;;;7.25;5.85;;;16.70;99.90;;;;;;5034269;28;20589;-88
2023/09/07 02:57:00;;;;;;;7.95;5.50;;;16.70;99.90;;;;;;5045744;28;20647;-89
2023/09/07 02:59:31;;;;;;;8.70;5.70;;;16.60;99.90;;;;;;5054211;28;20173;-89
2023/09/07 03:01:57;;;;;;;10.82;5.97;;;16.70;99.90;;;;;;5054181;28;20184;-89
2023/09/07 03:04:23;;;;;;;14.93;5.65;;;16.70;99.90;;;;;;5053840;28;20177;-89
2023/09/07 03:06:49;;;;;;;7.82;5.65;;;16.50;99.90;;;;;;5054067;28;20193;-88
2023/09/07 03:09:16;;;;;;;9.20;5.60;;;16.40;99.90;;;;;;5053806;28;20173;-89
2023/09/07 03:11:42;;;;;;;7.88;5.15;;;16.30;99.90;;;;;;5053812;28;20643;-89
2023/09/07 03:14:08;;;;;;;7.13;5.07;;;16.20;99.90;;;;;;5055044;28;20202;-89
2023/09/07 03:16:34;;;;;;;6.90;5.18;;;16.20;99.90;;;;;;5054042;28;20639;-88
2023/09/07 03:19:02;;;;;;;9.55;5.50;;;16.10;99.90;;;;;;5053858;28;20261;-89
2023/09/07 03:21:29;;;;;;;12.38;5.25;;;16.00;99.90;;;;;;5053832;28;20524;-88
2023/09/07 03:23:56;;;;;;;5.25;4.47;;;16.00;99.90;;;;;;5053709;28;20583;-88
2023/09/07 03:26:21;;;;;;;7.35;4.78;;;15.90;99.90;;;;;;5052517;28;20680;-88
2023/09/07 03:28:51;;;;;;;8.18;5.50;;;15.80;99.90;;;;;;5037382;28;20231;-89
2023/09/07 03:31:17;;;;;;;7.18;5.07;;;15.80;99.90;;;;;;5037095;28;20255;-88
2023/09/07 03:33:43;;;;;;;5.70;5.10;;;15.80;99.90;;;;;;5037049;28;20173;-89
2023/09/07 03:36:09;;;;;;;10.38;6.10;;;15.80;99.90;;;;;;5037061;28;20547;-88
2023/09/07 03:38:36;;;;;;;8.18;5.07;;;15.90;99.90;;;;;;5036909;28;20180;-88
2023/09/07 03:41:02;;;;;;;10.27;5.90;;;15.90;99.90;;;;;;5036788;28;20253;-90
2023/09/07 03:43:27;;;;;;;7.85;5.38;;;16.00;99.90;;;;;;5037029;28;20220;-89
2023/09/07 03:45:53;;;;;;;8.27;5.03;;;16.00;99.90;;;;;;5037115;28;20185;-91
2023/09/07 03:48:23;;;;;;;5.65;5.13;;;15.90;99.90;;;;;;5037078;28;20571;-91
2023/09/07 03:50:49;;;;;;;7.15;5.28;;;15.90;99.90;;;;;;5036832;28;20213;-90
2023/09/07 03:53:14;;;;;;;10.23;5.63;;;15.90;99.90;;;;;;5036868;28;20201;-92
2023/09/07 03:55:44;;;;;;;7.25;5.53;;;15.90;99.90;;;;;;5036987;28;20182;-90
2023/09/07 03:58:12;;;;;;;7.60;5.20;;;15.80;99.90;;;;;;5040677;28;20189;-91
2023/09/07 04:00:40;;;;;;;5.38;4.88;;;15.80;99.90;;;;;;5056853;28;20177;-90
2023/09/07 04:03:06;;;;;;;6.95;5.28;;;15.90;99.90;;;;;;5056606;28;20174;-90
2023/09/07 04:05:32;;;;;;;6.80;5.03;;;15.90;99.90;;;;;;5057041;28;20196;-89
2023/09/07 04:08:02;;;;;;;10.05;5.53;;;15.80;99.90;;;;;;5056789;28;20174;-90
2023/09/07 04:10:28;;;;;;;6.97;5.03;;;15.80;99.90;;;;;;5056937;28;20655;-89
2023/09/07 04:12:53;;;;;;;8.60;4.95;;;15.80;99.90;;;;;;5056685;28;20181;-89
2023/09/07 04:15:19;;;;;;;5.82;5.15;;;15.80;99.90;;;;;;5056928;28;20181;-91
2023/09/07 04:17:45;;;;;;;5.68;5.13;;;15.70;99.90;;;;;;5074290;28;20592;-92
2023/09/07 04:20:13;;;;;;;8.18;5.38;;;15.70;99.90;;;;;;5056936;28;20234;-90
2023/09/07 04:22:40;;;;;;;9.60;5.53;;;15.70;99.90;;;;;;5056977;28;20542;-89
2023/09/07 04:25:06;;;;;;;7.00;5.60;;;15.70;99.90;;;;;;5056767;28;20173;-89
2023/09/07 04:27:32;;;;;;;7.03;5.50;;;15.70;99.90;;;;;;5055241;28;20337;-91
2023/09/07 04:30:00;;;;;;;6.25;5.55;;;15.60;99.90;;;;;;5056834;28;20209;-90
2023/09/07 04:32:25;;;;;;;7.07;4.90;;;15.50;99.90;;;;;;5058116;28;20197;-91
2023/09/07 04:34:56;;;;;;;10.00;5.88;;;15.30;99.90;;;;;;5056933;28;20185;-91
2023/09/07 04:37:23;;;;;;;7.47;5.72;;;15.30;99.90;;;;;;5056660;28;20624;-90
2023/09/07 04:39:52;;;;;;;7.18;5.43;;;15.30;99.90;;;;;;5056785;28;20608;-91
2023/09/07 04:42:18;;;;;;;7.88;5.80;;;15.40;99.90;;;;;;5056566;28;20170;-89
2023/09/07 04:44:44;;;;;;;8.45;5.05;;;15.40;99.90;;;;;;5056468;28;20209;-89
2023/09/07 04:47:10;;;;;;;7.18;5.57;;;15.30;99.90;;;;;;5056199;28;20174;-89
2023/09/07 04:49:37;;;;;;;7.93;5.30;;;15.30;99.90;;;;;;5056433;28;20231;-90
2023/09/07 04:52:02;;;;;;;7.03;5.30;;;15.30;99.90;;;;;;5056667;28;20174;-89
2023/09/07 04:54:28;;;;;;;8.20;5.45;;;15.40;99.90;;;;;;5056315;28;20241;-88
2023/09/07 04:56:54;;;;;;;7.80;6.65;;;15.40;99.90;;;;;;5056019;28;20178;-89
2023/09/07 04:59:20;;;;;;;8.85;7.22;;;15.40;99.90;;;;;;5056169;28;20173;-89
2023/09/07 05:01:46;;;;;;;6.07;5.47;;;15.50;99.90;;;;;;5056299;28;20659;-89
2023/09/07 05:04:12;;;;;;;6.78;4.95;;;15.50;99.90;;;;;;5055650;28;20174;-89
2023/09/07 05:06:40;;;;;;;7.82;5.10;;;15.50;99.90;;;;;;5056242;28;20640;-89
2023/09/07 05:09:07;;;;;;;6.88;5.18;;;15.50;99.90;;;;;;5056387;28;20235;-89
2023/09/07 05:11:35;;;;;;;7.85;5.40;;;15.40;99.90;;;;;;5056036;28;20252;-90
2023/09/07 05:14:02;;;;;;;8.70;5.75;;;15.40;99.90;;;;;;5056219;28;20197;-89
2023/09/07 05:16:28;;;;;;;9.63;5.50;;;15.40;99.90;;;;;;5055792;28;20312;-88
2023/09/07 05:18:58;;;;;;;7.07;5.30;;;15.40;99.90;;;;;;5055795;28;20231;-89
2023/09/07 05:21:23;;;;;;;6.25;5.60;;;15.50;99.90;;;;;;5055892;28;20219;-89
2023/09/07 05:23:49;;;;;;;7.57;4.88;;;15.60;99.90;;;;;;5056500;28;20178;-89
2023/09/07 05:26:22;;;;;;;7.82;5.70;;;15.60;99.90;;;;;;5055685;28;20229;-89
2023/09/07 05:28:54;;;;;;;10.52;5.97;;;15.70;99.90;;;;;;5055957;28;20173;-89
2023/09/07 05:31:19;;;;;;;9.15;5.85;;;15.80;99.90;;;;;;5055614;28;20201;-88
2023/09/07 05:33:45;;;;;;;8.52;5.45;;;15.80;99.90;;;;;;5055493;28;20506;-90
2023/09/07 05:36:11;;;;;;;8.55;5.55;;;15.90;99.90;;;;;;5055342;28;20178;-86
2023/09/07 05:38:37;;;;;;;9.30;6.07;;;16.00;99.90;;;;;;5054086;28;20269;-88
2023/09/07 05:41:03;;;;;;;10.13;6.38;;;16.10;99.90;;;;;;5054051;28;20181;-89
2023/09/07 05:43:29;;;;;;;8.15;5.90;;;16.20;99.90;;;;;;5055305;28;20181;-88
2023/09/07 05:45:55;;;;;;;10.23;5.78;;;16.30;99.90;;;;;;5055176;28;20170;-90
2023/09/07 05:48:21;;;;;;;11.60;5.50;;;16.50;99.90;;;;;;5055314;28;20182;-89
2023/09/07 05:50:46;;;;;;;8.48;5.95;;;16.60;99.90;;;;;;5055183;28;20259;-89
2023/09/07 05:53:12;;;;;;;12.93;6.05;;;16.70;99.90;;;;;;5055320;28;20177;-90
2023/09/07 05:55:38;;;;;;;9.95;5.78;;;16.70;99.90;;;;;;5056433;28;20180;-89
2023/09/07 05:58:08;;;;;;;8.95;5.85;;;16.90;99.90;;;;;;5055093;28;20608;-90
2023/09/07 06:00:39;;;;;;;8.95;5.80;;;17.10;99.90;;;;;;5054841;28;20174;-91
2023/09/07 06:03:05;;;;;;;6.60;5.50;;;17.20;99.90;;;;;;5054927;28;20174;-91
2023/09/07 06:05:31;;;;;;;7.55;5.40;;;17.30;99.90;;;;;;5054628;28;20206;-90
2023/09/07 06:07:57;;;;;;;5.88;4.97;;;17.40;99.90;;;;;;5054773;28;20185;-90
2023/09/07 06:10:24;;;;;;;7.90;5.45;;;17.40;99.90;;;;;;5056151;28;20202;-89
2023/09/07 06:12:50;;;;;;;6.72;5.63;;;17.60;99.90;;;;;;5054444;28;20631;-89
2023/09/07 06:15:16;;;;;;;10.00;5.68;;;17.60;99.90;;;;;;5054969;28;20182;-90
2023/09/07 06:17:41;;;;;;;9.80;5.45;;;17.70;99.90;;;;;;5054433;28;20189;-91
2023/09/07 06:20:13;;;;;;;8.77;5.80;;;17.80;99.90;;;;;;5054700;28;20185;-90
2023/09/07 06:22:39;;;;;;;6.75;5.65;;;17.80;99.90;;;;;;5054765;28;20181;-91
2023/09/07 06:25:05;;;;;;;11.75;5.78;;;17.90;99.90;;;;;;5054385;28;20178;-91
2023/09/07 06:27:30;;;;;;;7.70;5.20;;;18.00;99.90;;;;;;5069368;28;20239;-89
2023/09/07 06:29:56;;;;;;;15.07;5.53;;;18.00;99.90;;;;;;5075459;28;20239;-90
2023/09/07 06:32:22;;;;;;;9.30;5.55;;;18.10;99.90;;;;;;5057621;28;20639;-91
2023/09/07 06:34:48;;;;;;;10.68;5.38;;;18.10;99.90;;;;;;5057707;28;20176;-90
2023/09/07 06:37:14;;;;;;;11.68;5.63;;;18.20;99.90;;;;;;5057772;28;20227;-91
2023/09/07 06:39:42;;;;;;;8.10;5.70;;;18.30;99.90;;;;;;5057523;28;20181;-90
2023/09/07 06:42:09;;;;;;;7.95;6.00;;;18.40;99.90;;;;;;5057096;28;20668;-90
2023/09/07 06:44:35;;;;;;;9.90;6.20;;;18.50;99.90;;;;;;5057780;28;20557;-90
2023/09/07 06:47:01;;;;;;;8.68;6.38;;;18.60;99.90;;;;;;5057169;28;20173;-89
2023/09/07 06:49:29;;;;;;;6.05;5.30;;;18.60;99.90;;;;;;5057041;28;20615;-92
2023/09/07 06:51:56;;;;;;;12.07;5.50;;;18.70;99.90;;;;;;5057483;28;20173;-93
2023/09/07 06:54:22;;;;;;;8.15;6.03;;;18.80;99.90;;;;;;5057435;28;20184;-90
2023/09/07 06:56:48;;;;;;;11.32;6.20;;;18.90;99.90;;;;;;5057110;28;20184;-92
2023/09/07 06:59:14;;;;;;;11.32;6.03;;;19.00;99.90;;;;;;5057580;28;20181;-91
2023/09/07 07:01:40;;;;;;;11.65;6.78;;;19.10;99.90;;;;;;5057530;28;20180;-94
2023/09/07 07:04:07;;;;;;;9.90;6.18;;;19.20;99.90;;;;;;5057557;28;20177;-92
2023/09/07 07:06:33;;;;;;;8.48;5.63;;;19.30;99.90;;;;;;5057403;28;20179;-90
2023/09/07 07:08:59;;;;;;;12.63;6.07;;;19.40;99.90;;;;;;5057567;28;20271;-93
2023/09/07 07:11:25;;;;;;;9.07;6.03;;;19.40;99.90;;;;;;5057101;28;20639;-90
2023/09/07 07:13:51;;;;;;;10.07;5.78;;;19.40;99.90;;;;;;5057590;28;20207;-91
2023/09/07 07:16:17;;;;;;;12.20;6.60;;;19.50;99.90;;;;;;5052307;28;20181;-91
2023/09/07 07:18:43;;;;;;;9.10;6.10;;;19.60;99.90;;;;;;5053428;28;20262;-95
2023/09/07 07:21:09;;;;;;;11.30;6.70;;;19.70;99.90;;;;;;5037442;28;20189;-90
2023/09/07 07:23:35;;;;;;;9.68;5.53;;;19.80;99.90;;;;;;5046403;28;20173;-90
2023/09/07 07:26:00;;;;;;;14.73;6.13;;;19.80;99.90;;;;;;5056917;28;20267;-90
2023/09/07 07:28:26;;;;;;;12.93;6.05;;;19.90;99.90;;;;;;5057175;28;20272;-89
2023/09/07 07:30:53;;;;;;;10.95;6.47;;;19.90;99.90;;;;;;5056911;28;20254;-93
2023/09/07 07:33:19;;;;;;;11.10;6.18;;;20.00;99.90;;;;;;5057719;28;20211;-91
2023/09/07 07:35:45;;;;;;;10.82;5.90;;;20.10;99.90;;;;;;5057475;28;20219;-92
2023/09/07 07:38:13;;;;;;;9.30;6.15;;;20.20;99.90;;;;;;5057024;28;20181;-90
2023/09/07 07:40:42;;;;;;;10.88;5.90;;;20.30;99.90;;;;;;5056783;28;20267;-92
2023/09/07 07:43:09;;;;;;;8.48;5.90;;;20.40;99.90;;;;;;5057041;28;20615;-91
2023/09/07 07:45:38;;;;;;;7.05;5.80;;;20.50;99.90;;;;;;5057165;28;20264;-91
2023/09/07 07:48:07;;;;;;;10.75;6.07;;;20.60;99.90;;;;;;5056955;28;20200;-93
2023/09/07 07:50:43;;;;;;;9.20;5.50;;;20.70;99.90;;;;;;5056825;28;20209;-93
2023/09/07 07:53:09;;;;;;;10.05;5.57;;;20.80;99.90;;;;;;5074721;28;20176;-90
2023/09/07 07:55:38;;;;;;;8.82;5.68;;;20.90;99.90;;;;;;5074175;28;20185;-91
2023/09/07 07:58:07;;;;;;;7.05;5.03;;;20.90;99.90;;;;;;5073619;28;20272;-93
2023/09/07 08:00:40;;;;;;;10.70;5.82;;;21.00;99.90;;;;;;5074093;28;20603;-90
2023/09/07 08:03:07;;;;;;;8.20;5.30;;;21.10;99.90;;;;;;5075790;28;20181;-95
2023/09/07 08:05:33;;;;;;;11.50;5.60;;;21.20;99.90;;;;;;5040488;28;20209;-90
2023/09/07 08:07:59;;;;;;;9.60;5.50;;;21.20;99.90;;;;;;5040728;28;20178;-91
2023/09/07 08:10:25;;;;;;;8.05;5.25;;;21.40;99.90;;;;;;5040384;28;20213;-89
2023/09/07 08:12:56;;;;;;;9.15;5.53;;;21.50;99.90;;;;;;5040661;28;20561;-90
2023/09/07 08:15:22;;;;;;;9.98;5.57;;;21.50;99.90;;;;;;5040814;28;20670;-90
2023/09/07 08:17:48;;;;;;;8.25;5.30;;;21.60;99.90;;;;;;5040378;28;20197;-93
2023/09/07 08:20:15;;;;;;;11.75;5.30;;;21.70;99.90;;;;;;5040475;28;20198;-92
2023/09/07 08:22:42;;;;;;;8.25;5.30;;;21.90;99.90;;;;;;5040580;28;20186;-93
2023/09/07 08:25:13;;;;;;;10.23;5.07;;;22.00;99.90;;;;;;5058351;28;20499;-93
2023/09/07 08:27:46;;;;;;;12.25;5.00;;;22.10;99.90;;;;;;5040349;28;20225;-89
2023/09/07 08:30:18;;;;;;;9.02;5.00;;;22.20;99.90;;;;;;5040658;28;20216;-95
2023/09/07 08:32:45;;;;;;;8.02;4.55;;;22.30;99.90;;;;;;5040354;28;20193;-93
2023/09/07 08:35:16;;;;;;;9.48;5.03;;;22.40;99.90;;;;;;5058340;28;20177;-92
2023/09/07 08:37:42;;;;;;;7.75;4.93;;;22.50;99.90;;;;;;5060188;28;20181;-92
2023/09/07 08:40:09;;;;;;;7.25;4.50;;;22.60;99.90;;;;;;5060116;28;20184;-92
2023/09/07 08:42:39;;;;;;;8.80;5.25;;;22.60;99.90;;;;;;5060190;28;20608;-94
2023/09/07 08:45:07;;;;;;;6.93;4.95;;;22.80;99.90;;;;;;5060159;28;20177;-93
2023/09/07 08:47:37;;;;;;;7.53;4.78;;;22.80;99.90;;;;;;5077788;28;20173;-93
2023/09/07 08:50:08;;;;;;;7.65;4.88;;;22.90;99.90;;;;;;5059625;28;20215;-94
2023/09/07 08:52:42;;;;;;;9.32;4.85;;;23.00;99.90;;;;;;5077666;28;20166;-91
2023/09/07 08:55:11;;;;;;;10.32;4.93;;;23.00;99.90;;;;;;5059716;28;20262;-90
2023/09/07 08:57:36;;;;;;;6.78;4.90;;;23.10;99.90;;;;;;5059693;28;20173;-94
2023/09/07 09:00:07;;;;;;;9.23;5.32;;;23.20;99.90;;;;;;5059828;28;20203;-87
2023/09/07 09:02:36;;;;;;;7.47;4.90;;;23.30;99.90;;;;;;5059584;28;20175;-89
2023/09/07 09:05:04;;;;;;;7.68;4.93;;;23.40;99.90;;;;;;5072563;28;20185;-91
2023/09/07 09:07:30;;;;;;;7.18;4.35;;;23.50;99.90;;;;;;5076677;28;20195;-91
2023/09/07 09:10:08;;;;;;;11.65;5.13;;;23.60;99.90;;;;;;5077353;28;20710;-92
2023/09/07 09:12:47;;;;;;;8.18;5.35;;;23.70;99.90;;;;;;5075926;28;20177;-92
2023/09/07 09:15:12;;;;;;;6.20;4.80;;;23.70;99.90;;;;;;5076246;28;20173;-91
2023/09/07 09:17:38;;;;;;;5.43;4.72;;;23.70;99.90;;;;;;5076406;28;20204;-92
2023/09/07 09:20:09;;;;;;;8.82;4.75;;;23.80;99.90;;;;;;5075730;28;20181;-92
2023/09/07 09:22:39;;;;;;;9.43;5.07;;;23.80;99.90;;;;;;5076101;28;20176;-92
2023/09/07 09:25:05;;;;;;;8.15;4.68;;;24.00;99.90;;;;;;5076110;28;20265;-95
2023/09/07 09:27:31;;;;;;;7.95;4.80;;;23.90;99.90;;;;;;5090766;28;20242;-93
2023/09/07 09:29:58;;;;;;;8.38;4.35;;;24.00;99.90;;;;;;5078964;28;20714;-88
2023/09/07 09:32:25;;;;;;;5.95;4.32;;;24.10;99.90;;;;;;5078822;28;20180;-89
2023/09/07 09:34:51;;;;;;;5.95;4.85;;;24.20;99.90;;;;;;5063059;28;20203;-87
2023/09/07 09:37:19;;;;;;;7.18;4.80;;;24.40;99.90;;;;;;5058887;28;20694;-88
2023/09/07 09:39:50;;;;;;;6.03;4.63;;;24.40;99.90;;;;;;5058808;28;20608;-92
2023/09/07 09:42:21;;;;;;;6.05;4.47;;;24.50;99.90;;;;;;5058840;28;20605;-91
2023/09/07 09:44:50;;;;;;;6.80;4.55;;;24.60;99.90;;;;;;5076684;28;20165;-93
2023/09/07 09:47:17;;;;;;;7.57;4.88;;;24.70;99.90;;;;;;5058714;28;20199;-92
2023/09/07 09:49:43;;;;;;;6.63;4.85;;;24.70;99.90;;;;;;5058340;28;20603;-89
2023/09/07 09:52:11;;;;;;;7.03;4.22;;;24.80;99.90;;;;;;5058546;28;20185;-87
2023/09/07 09:54:38;;;;;;;10.50;5.07;;;24.80;99.90;;;;;;5058821;28;20169;-91
2023/09/07 09:57:05;;;;;;;6.32;4.75;;;24.90;99.90;;;;;;5058411;28;20182;-89
2023/09/07 09:59:32;;;;;;;6.63;4.65;;;25.00;99.90;;;;;;5055131;28;20177;-89
2023/09/07 10:02:00;;;;;;;7.47;5.20;;;25.10;99.90;;;;;;5057322;28;20169;-88
2023/09/07 10:04:26;;;;;;;7.72;4.82;;;25.10;99.90;;;;;;5057681;28;20524;-89
2023/09/07 10:07:10;;;;;;;5.90;4.68;;;25.20;99.90;;;;;;5058036;28;20181;-91
2023/09/07 10:09:38;;;;;;;8.25;5.25;;;25.20;99.90;;;;;;5057312;28;20172;-88
2023/09/07 10:12:08;;;;;;;6.70;4.93;;;25.20;99.90;;;;;;5075556;28;20275;-90
2023/09/07 10:14:41;;;;;;;6.25;4.97;;;25.20;99.90;;;;;;5057539;28;20169;-88
2023/09/07 10:17:09;;;;;;;7.75;4.57;;;25.30;99.90;;;;;;5057587;28;20559;-90
2023/09/07 10:19:37;;;;;;;9.43;4.55;;;25.40;99.90;;;;;;5057188;28;20181;-93
2023/09/07 10:22:04;;;;;;;7.00;4.85;;;25.50;99.90;;;;;;5057832;28;20177;-93
2023/09/07 10:24:35;;;;;;;6.72;4.57;;;25.60;99.90;;;;;;5074911;28;20169;-91
2023/09/07 10:27:08;;;;;;;5.95;4.82;;;25.60;99.90;;;;;;5057429;28;20232;-89
2023/09/07 10:29:45;;;;;;;7.10;4.50;;;25.60;99.90;;;;;;5075410;28;20241;-91
2023/09/07 10:32:15;;;;;;;5.30;4.53;;;25.80;99.90;;;;;;5057477;28;20165;-91
2023/09/07 10:34:44;;;;;;;7.32;4.57;;;25.80;99.90;;;;;;5057203;28;20745;-92
2023/09/07 10:37:14;;;;;;;4.88;3.78;;;26.00;99.90;;;;;;5075376;28;20187;-88
2023/09/07 10:39:43;;;;;;;8.82;4.22;;;26.10;99.90;;;;;;5057397;28;20600;-88
2023/09/07 10:42:19;;;;;;;6.05;4.55;;;26.20;99.90;;;;;;5075057;28;20183;-90
2023/09/07 10:44:45;;;;;;;4.80;4.07;;;26.30;99.90;;;;;;5057237;28;20169;-88
2023/09/07 10:47:14;;;;;;;6.78;4.78;;;26.30;99.70;;;;;;5057178;28;20184;-85
2023/09/07 10:49:40;;;;;;;9.43;4.50;;;26.30;99.90;;;;;;5056739;28;20204;-89
2023/09/07 10:52:11;;;;;;;7.05;4.40;;;26.30;99.90;;;;;;5075143;28;20208;-93
2023/09/07 10:54:37;;;;;;;5.13;3.78;;;26.30;99.90;;;;;;5057670;28;20603;-88
2023/09/07 10:57:09;;;;;;;6.43;4.20;;;26.40;99.90;;;;;;5075065;28;20176;-89
2023/09/07 10:59:35;;;;;;;5.57;4.30;;;26.50;99.30;;;;;;5074828;28;20506;-88
2023/09/07 11:02:07;;;;;;;4.78;4.22;;;26.50;99.30;;;;;;5056836;28;20172;-89
2023/09/07 11:04:33;;;;;;;6.00;4.18;;;26.60;99.00;;;;;;5049722;28;20173;-90
2023/09/07 11:06:59;;;;;;;7.82;4.00;;;26.70;99.20;;;;;;5054982;28;20170;-90
2023/09/07 11:09:25;;;;;;;5.82;3.90;;;26.60;99.90;;;;;;5054784;28;20223;-89
2023/09/07 11:11:54;;;;;;;6.20;4.38;;;26.80;99.30;;;;;;5036776;28;20217;-90
2023/09/07 11:14:22;;;;;;;5.25;4.03;;;26.80;98.40;;;;;;5037189;28;20185;-89
2023/09/07 11:16:47;;;;;;;14.93;4.35;;;26.90;99.30;;;;;;5036802;28;20269;-89
2023/09/07 11:19:15;;;;;;;7.07;3.72;;;27.00;98.50;;;;;;5054458;28;20251;-89
2023/09/07 11:21:40;;;;;;;7.05;4.03;;;27.10;98.60;;;;;;5036905;28;20182;-87
2023/09/07 11:24:08;;;;;;;4.93;4.13;;;27.20;99.20;;;;;;5036958;28;20182;-87
2023/09/07 11:26:47;;;;;;;6.07;4.07;;;27.20;98.70;;;;;;5037028;28;20228;-91
2023/09/07 11:29:17;;;;;;;8.05;3.83;;;27.30;98.50;;;;;;5036726;28;20196;-90
2023/09/07 11:31:46;;;;;;;6.95;4.40;;;27.30;98.00;;;;;;5036489;28;20305;-89
2023/09/07 11:34:15;;;;;;;10.60;4.47;;;27.30;98.30;;;;;;5036808;28;20173;-90
2023/09/07 11:36:43;;;;;;;6.97;4.20;;;27.40;97.80;;;;;;5057453;28;20659;-87
2023/09/07 11:39:14;;;;;;;7.32;3.83;;;27.50;97.70;;;;;;5048642;28;20231;-85
2023/09/07 11:41:41;;;;;;;5.30;3.80;;;27.50;98.30;;;;;;5078646;28;20165;-93
2023/09/07 11:44:07;;;;;;;4.80;3.80;;;27.60;97.70;;;;;;5078783;28;20185;-88
2023/09/07 11:46:33;;;;;;;7.28;3.70;;;27.60;97.30;;;;;;5078408;28;20161;-89
2023/09/07 11:48:59;;;;;;;4.57;3.53;;;27.60;96.60;;;;;;5078288;28;20643;-85
2023/09/07 11:51:28;;;;;;;6.68;3.60;;;27.80;96.40;;;;;;5060276;28;20248;-90
2023/09/07 11:53:53;;;;;;;5.15;3.50;;;27.80;97.20;;;;;;5062915;28;20177;-88
2023/09/07 11:56:20;;;;;;;5.28;3.88;;;27.90;96.00;;;;;;5040512;28;20487;-91
2023/09/07 11:58:45;;;;;;;7.32;3.80;;;27.90;96.10;;;;;;5053396;28;20178;-88
2023/09/07 12:01:11;;;;;;;5.80;3.92;;;28.00;96.40;;;;;;5060163;28;20188;-88
2023/09/07 12:03:38;;;;;;;6.07;3.83;;;28.10;96.10;;;;;;5059486;28;20646;-90
2023/09/07 12:06:04;;;;;;;6.93;4.13;;;28.10;95.50;;;;;;5060453;28;20643;-87
2023/09/07 12:08:29;;;;;;;6.15;3.50;;;28.20;95.60;;;;;;5060293;28;20200;-93
2023/09/07 12:10:55;;;;;;;5.05;3.60;;;28.20;94.80;;;;;;5059962;28;20200;-88
2023/09/07 12:13:21;;;;;;;5.85;3.88;;;28.20;95.80;;;;;;5077254;28;20176;-89
2023/09/07 12:15:47;;;;;;;6.30;3.70;;;28.20;95.50;;;;;;5060347;28;20177;-90
2023/09/07 12:18:13;;;;;;;6.88;3.75;;;28.20;95.30;;;;;;5059620;28;20211;-92
2023/09/07 12:20:38;;;;;;;6.03;3.58;;;28.20;94.50;;;;;;5077834;28;20177;-86
2023/09/07 12:23:04;;;;;;;12.70;3.60;;;28.20;94.70;;;;;;5077030;28;20169;-90
2023/09/07 12:25:30;;;;;;;5.10;3.50;;;28.30;94.30;;;;;;5060184;28;20173;-92
2023/09/07 12:27:56;;;;;;;6.32;3.88;;;28.30;94.80;;;;;;5060264;28;20228;-84
2023/09/07 12:30:23;;;;;;;8.18;3.88;;;28.30;95.00;;;;;;5077532;28;20698;-88
2023/09/07 12:32:50;;;;;;;4.40;3.60;;;28.40;95.20;;;;;;5059901;28;20211;-87
2023/09/07 12:35:17;;;;;;;7.05;3.67;;;28.50;94.60;;;;;;5059839;28;20543;-89
2023/09/07 12:37:43;;;;;;;4.95;3.42;;;28.60;95.80;;;;;;5077782;28;20172;-87
2023/09/07 12:40:12;;;;;;;6.20;4.15;;;28.60;95.50;;;;;;5077455;28;20274;-88
2023/09/07 12:42:42;;;;;;;8.88;3.83;;;28.60;95.10;;;;;;5059491;28;20180;-88
2023/09/07 12:45:12;;;;;;;5.30;3.65;;;28.60;94.40;;;;;;5059216;28;20208;-84